Annapolis, MD

2:32 PM EDT on October 23, 2014 (GMT -0400)
Stevensville | Change Station
CLOSE
Current Station
Airport
Location: Stevensville,
Elevation: 49 ft
Nearby Weather Stations

Elev 49 ft 38.98 °N, 76.33 °W | Updated 18 minutes ago

Overcast
Overcast
59 °F
Feels Like 59 °F
N
14
Wind Variable Wind from NW
Gusts 24 mph

Today
High -- | Low -- °F
--% Chance of Precip.
Yesterday
High -- | Low -- °F
Precip. -- in
7:23 AM 6:16 PM
Waning Crescent, 0% visible
Pressure 29.82 in
Visibility 10.0 miles
Clouds
Dew Point 45 °F
Humidity 59%
Rainfall 0.00 in
Snow Depth Not available.
UV Not available.
Pollen 1.80 out of 12
Air Quality Not available.
Flu Activity Sporadic
METAR KW29 231814Z AUTO 31012G21KT 10SM 15/07 A2982 RMK AO1

More Conditions Fewer Conditions

Pressure 29.82 in
Visibility 10.0 miles
Clouds
Dew Point 45 °F
Humidity 59%
Rainfall 0.00 in
Snow Depth Not available.
UV Not available.
Pollen 1.80 out of 12
Air Quality Not available.
Flu Activity Sporadic
METAR KW29 231814Z AUTO 31012G21KT 10SM 15/07 A2982 RMK AO1

More Conditions Fewer Conditions

10-Day Weather Forecast

Almanac

Astronomy

Oct. 23, 2014 Rise Set
Actual Time 7:23 AM EDT 6:16 PM EDT
Civil Twilight 6:56 AM EDT 6:43 PM EDT
Nautical Twilight 6:25 AM EDT 7:14 PM EDT
Astronomical Twilight 5:54 AM EDT 7:45 PM EDT
Moon 7:01 AM EDT 6:16 PM EDT
Length of Visible Light 11h 47m
Length of Day
10h 52m
Tomorrow will be 2m 21s shorter.
Waning Crescent, 0% of the Moon is Illuminated
Today
Waning Crescent
Oct 23
New
Oct 30
First Quarter
Nov 6
Full
Nov 14
Last Quarter

Today's Extremes

State Highs State Lows

Community

WunderPhotos

Upload Photos

1,764,338 photos uploaded!

WunderBlogs® & News

Nearby

Snow Depth

Station Depth Elevation
No new snow has been reported.

Earthquake Activity

City Distance Mag. Time & Date
No recent earthquake activity has been reported nearby.
Minimum magnitude displayed is 2.5.

Coastal Water Temperatures

Place Temperature
Cambridge, MD 60.1 °F
Tolchester Beach, MD 57.9 °F
Baltimore, MD 64.9 °F

Nearby Weather Stations